createdAt,value
2022-09-15T06:14:37.349Z,12.17
2022-09-15T06:24:37.388Z,12.30
2022-09-15T06:34:37.359Z,12.34
2022-09-15T06:44:37.138Z,12.52
2022-09-15T06:54:37.289Z,12.73
2022-09-15T07:04:37.241Z,13.01
2022-09-15T07:14:37.199Z,13.11
2022-09-15T07:24:37.272Z,13.14
2022-09-15T07:34:37.301Z,13.37
2022-09-15T07:44:37.361Z,13.70
2022-09-15T07:54:37.319Z,13.69
2022-09-15T08:04:37.274Z,13.72
2022-09-15T08:14:37.500Z,13.79
2022-09-15T08:24:37.293Z,13.91
2022-09-15T08:34:37.490Z,14.37
2022-09-15T08:44:37.626Z,14.61
2022-09-15T08:54:37.740Z,14.67
2022-09-15T09:04:37.777Z,14.68
2022-09-15T09:14:37.687Z,15.00
2022-09-15T09:24:37.710Z,15.24
2022-09-15T09:34:37.729Z,15.97
2022-09-15T09:44:37.739Z,16.28
2022-09-15T09:54:37.653Z,16.23
2022-09-15T10:04:37.722Z,17.38
2022-09-15T10:14:37.729Z,16.54
2022-09-15T10:24:37.819Z,16.64
2022-09-15T10:34:37.675Z,17.33
2022-09-15T10:44:37.735Z,16.53
2022-09-15T10:54:37.782Z,16.78
2022-09-15T11:04:37.850Z,16.03
2022-09-15T11:14:37.991Z,15.85
2022-09-15T11:24:37.839Z,17.70
2022-09-15T11:34:37.827Z,17.65
2022-09-15T11:44:37.875Z,18.05
2022-09-15T11:54:37.863Z,16.68
2022-09-15T12:04:37.866Z,15.36
2022-09-15T12:14:37.807Z,15.54
2022-09-15T12:24:37.858Z,16.16
2022-09-15T12:34:37.984Z,16.52
2022-09-15T12:44:37.911Z,16.76
2022-09-15T12:54:37.979Z,16.77
2022-09-15T13:04:37.899Z,17.45
2022-09-15T13:14:38.137Z,17.22
2022-09-15T13:24:38.033Z,17.05
2022-09-15T13:35:13.834Z,17.06
2022-09-15T13:44:38.037Z,16.51
2022-09-15T13:54:37.917Z,16.68
2022-09-15T14:04:37.924Z,17.13
2022-09-15T14:14:37.979Z,17.42
2022-09-15T14:24:37.934Z,17.59
2022-09-15T14:34:38.072Z,16.77
2022-09-15T14:54:37.893Z,17.96
2022-09-15T15:04:37.987Z,17.02
2022-09-15T15:14:38.357Z,16.99
2022-09-15T15:24:37.935Z,16.76
2022-09-15T15:34:38.088Z,16.68
2022-09-15T15:44:38.023Z,16.71
2022-09-15T15:54:38.116Z,14.91
2022-09-15T16:04:38.074Z,14.44
2022-09-15T16:14:38.085Z,14.28
2022-09-15T16:24:38.088Z,14.26
2022-09-15T16:34:38.053Z,15.23
2022-09-15T16:44:38.165Z,14.97
2022-09-15T16:54:38.005Z,14.50
2022-09-15T17:04:38.129Z,14.36
2022-09-15T17:14:38.034Z,14.11
2022-09-15T17:24:38.258Z,14.07
2022-09-15T17:34:38.141Z,14.09
2022-09-15T17:44:38.107Z,14.14
2022-09-15T17:54:38.199Z,14.08
2022-09-15T18:04:38.255Z,13.97
2022-09-15T18:14:38.278Z,13.66
2022-09-15T18:24:38.171Z,14.01
2022-09-15T18:34:38.274Z,14.31
2022-09-15T18:44:38.206Z,14.19
2022-09-15T18:54:38.334Z,13.99
2022-09-15T19:04:40.625Z,13.52
2022-09-15T19:14:38.507Z,13.36
